< Typhoon 195317 1953 Season Typhoon 195319 >
Typhoon 195318 (ALICE)
General InformationTrack Information on Google Maps || Disaster Info.ResourceGoogle EarthGE AnimationAtom FeedGeoJSON
Detalied Best Track (Time Zone = UTC)
Year Month Day Hour Lat. Long. Pressure (hPa) Wind (kt) Class Image Chart
1953 10 11 12 7.0 163.0 1006 0 2 -- Chart
1953 10 11 18 7.9 161.2 1004 0 2 -- Chart
1953 10 12 00 8.8 159.1 1004 0 2 -- Chart
1953 10 12 06 9.4 157.5 1004 0 2 -- Chart
1953 10 12 12 9.8 155.0 1004 0 2 -- Chart
1953 10 12 18 9.9 152.7 1003 0 2 -- Chart
1953 10 13 00 11.0 150.5 1000 0 2 -- Chart
1953 10 13 06 11.6 150.0 1000 0 2 -- Chart
1953 10 13 12 12.5 148.9 1000 0 2 -- Chart
1953 10 13 18 13.2 147.5 1000 0 2 -- Chart
1953 10 14 00 13.5 146.2 1000 0 9 -- Chart
1953 10 14 06 13.6 145.3 997 0 9 -- Chart
1953 10 14 12 13.8 144.8 995 0 9 -- Chart
1953 10 14 18 13.9 144.4 985 0 9 -- Chart
1953 10 15 00 14.0 144.1 980 0 9 -- Chart
1953 10 15 06 14.1 143.8 979 0 9 -- Chart
1953 10 15 12 14.6 143.4 978 0 9 -- Chart
1953 10 15 18 15.1 142.9 978 0 9 -- Chart
1953 10 16 00 15.5 142.5 979 0 9 -- Chart
1953 10 16 06 15.9 142.0 979 0 9 -- Chart
1953 10 16 12 16.2 141.7 980 0 9 -- Chart
1953 10 16 18 16.7 141.4 960 0 9 -- Chart
1953 10 17 00 17.0 141.2 940 0 9 -- Chart
1953 10 17 06 17.2 141.0 920 0 9 -- Chart
1953 10 17 12 18.2 141.0 920 0 9 -- Chart
1953 10 17 18 19.3 141.4 915 0 9 -- Chart
1953 10 18 00 20.3 142.3 915 0 9 -- Chart
1953 10 18 06 21.5 143.5 915 0 9 -- Chart
1953 10 18 12 23.2 144.6 920 0 9 -- Chart
1953 10 18 18 25.4 145.0 920 0 9 -- Chart
1953 10 19 00 28.0 145.0 955 0 9 -- Chart
1953 10 19 06 30.6 145.9 955 0 9 -- Chart
1953 10 19 12 32.2 147.3 955 0 9 -- Chart
1953 10 19 18 34.0 148.4 955 0 9 -- Chart
1953 10 20 00 35.9 149.2 955 0 9 -- Chart
1953 10 20 06 37.0 149.8 955 0 9 -- Chart
1953 10 20 12 38.2 151.2 965 0 9 -- Chart
1953 10 20 18 39.2 153.2 965 0 9 -- Chart
1953 10 21 00 40.0 155.7 970 0 9 -- Chart
1953 10 21 06 39.8 159.9 970 0 9 -- Chart
1953 10 21 12 39.4 163.0 970 0 9 -- Chart
1953 10 21 18 39.0 166.5 980 0 9 -- Chart
1953 10 22 00 38.9 169.0 982 0 9 -- Chart
1953 10 22 06 38.7 172.0 985 0 9 -- Chart
1953 10 22 12 38.8 175.0 985 0 9 -- Chart
1953 10 22 18 39.0 178.3 985 0 9 -- Chart
1953 10 23 00 39.0 181.7 988 0 6 -- Chart
Japan Meteorological Agency Best Track Data | Correction Date : 1991-07-16
< Typhoon 195317 1953 Season Typhoon 195319 >

Help